sensor_id;sensor_type;location;lat;lon;timestamp;P1;durP1;ratioP1;P2;durP2;ratioP2
32788;SDS011;19141;48.980;8.410;2023-08-08T04:22:33;4.93;;;3.30;;
32788;SDS011;19141;48.980;8.410;2023-08-08T04:24:58;4.85;;;2.90;;
32788;SDS011;19141;48.980;8.410;2023-08-08T04:27:24;5.85;;;2.60;;
32788;SDS011;19141;48.980;8.410;2023-08-08T04:29:49;4.13;;;2.60;;
32788;SDS011;19141;48.980;8.410;2023-08-08T04:32:15;6.43;;;3.25;;
32788;SDS011;19141;48.980;8.410;2023-08-08T04:34:40;4.35;;;2.58;;
32788;SDS011;19141;48.980;8.410;2023-08-08T04:37:05;11.70;;;5.00;;
32788;SDS011;19141;48.980;8.410;2023-08-08T04:39:31;5.88;;;3.03;;
32788;SDS011;19141;48.980;8.410;2023-08-08T04:41:56;5.78;;;3.35;;
32788;SDS011;19141;48.980;8.410;2023-08-08T04:44:22;5.20;;;2.80;;
32788;SDS011;19141;48.980;8.410;2023-08-08T04:46:47;6.30;;;2.78;;
32788;SDS011;19141;48.980;8.410;2023-08-08T04:49:12;6.35;;;2.30;;
32788;SDS011;19141;48.980;8.410;2023-08-08T04:51:38;3.08;;;1.70;;
32788;SDS011;19141;48.980;8.410;2023-08-08T04:54:03;5.45;;;2.45;;
32788;SDS011;19141;48.980;8.410;2023-08-08T04:56:29;4.45;;;2.83;;
32788;SDS011;19141;48.980;8.410;2023-08-08T04:58:54;3.92;;;2.10;;
32788;SDS011;19141;48.980;8.410;2023-08-08T05:01:20;5.38;;;2.50;;
32788;SDS011;19141;48.980;8.410;2023-08-08T05:03:45;6.70;;;2.45;;
32788;SDS011;19141;48.980;8.410;2023-08-08T05:06:11;6.95;;;2.50;;
32788;SDS011;19141;48.980;8.410;2023-08-08T05:08:37;3.60;;;2.25;;
32788;SDS011;19141;48.980;8.410;2023-08-08T05:11:02;7.88;;;2.50;;
32788;SDS011;19141;48.980;8.410;2023-08-08T05:13:28;7.13;;;2.10;;
32788;SDS011;19141;48.980;8.410;2023-08-08T05:15:53;8.25;;;2.60;;
32788;SDS011;19141;48.980;8.410;2023-08-08T05:18:18;3.83;;;2.03;;
32788;SDS011;19141;48.980;8.410;2023-08-08T05:20:44;4.07;;;2.40;;
32788;SDS011;19141;48.980;8.410;2023-08-08T05:23:09;5.65;;;2.38;;
32788;SDS011;19141;48.980;8.410;2023-08-08T05:25:35;7.70;;;3.80;;
32788;SDS011;19141;48.980;8.410;2023-08-08T05:28:00;6.07;;;4.40;;
32788;SDS011;19141;48.980;8.410;2023-08-08T05:30:25;5.85;;;3.20;;
32788;SDS011;19141;48.980;8.410;2023-08-08T05:32:51;6.10;;;2.92;;
32788;SDS011;19141;48.980;8.410;2023-08-08T05:35:16;4.72;;;2.33;;
32788;SDS011;19141;48.980;8.410;2023-08-08T05:37:42;5.13;;;2.60;;
32788;SDS011;19141;48.980;8.410;2023-08-08T05:40:07;7.10;;;3.13;;
32788;SDS011;19141;48.980;8.410;2023-08-08T05:42:33;3.05;;;2.05;;
32788;SDS011;19141;48.980;8.410;2023-08-08T05:44:58;5.22;;;2.15;;
32788;SDS011;19141;48.980;8.410;2023-08-08T05:47:24;4.35;;;2.58;;
32788;SDS011;19141;48.980;8.410;2023-08-08T05:49:49;6.00;;;2.35;;
32788;SDS011;19141;48.980;8.410;2023-08-08T05:52:15;6.20;;;2.50;;
32788;SDS011;19141;48.980;8.410;2023-08-08T05:54:40;2.90;;;1.85;;
32788;SDS011;19141;48.980;8.410;2023-08-08T05:57:05;4.53;;;2.38;;
32788;SDS011;19141;48.980;8.410;2023-08-08T05:59:31;3.13;;;1.80;;
32788;SDS011;19141;48.980;8.410;2023-08-08T06:01:57;4.88;;;2.03;;
32788;SDS011;19141;48.980;8.410;2023-08-08T06:04:23;4.43;;;2.17;;
32788;SDS011;19141;48.980;8.410;2023-08-08T06:06:49;4.25;;;2.25;;
32788;SDS011;19141;48.980;8.410;2023-08-08T06:09:15;3.28;;;2.08;;
32788;SDS011;19141;48.980;8.410;2023-08-08T06:11:40;2.85;;;1.92;;
32788;SDS011;19141;48.980;8.410;2023-08-08T06:14:06;3.60;;;1.70;;
32788;SDS011;19141;48.980;8.410;2023-08-08T06:16:31;2.72;;;1.50;;
32788;SDS011;19141;48.980;8.410;2023-08-08T06:18:56;4.18;;;2.00;;
32788;SDS011;19141;48.980;8.410;2023-08-08T06:21:22;3.88;;;2.58;;
32788;SDS011;19141;48.980;8.410;2023-08-08T06:23:47;3.65;;;2.13;;
32788;SDS011;19141;48.980;8.410;2023-08-08T06:26:14;4.57;;;2.28;;
32788;SDS011;19141;48.980;8.410;2023-08-08T06:28:39;3.15;;;1.83;;
32788;SDS011;19141;48.980;8.410;2023-08-08T06:31:05;3.83;;;1.85;;
32788;SDS011;19141;48.980;8.410;2023-08-08T06:33:30;2.88;;;1.98;;
32788;SDS011;19141;48.980;8.410;2023-08-08T06:35:55;5.78;;;2.42;;
32788;SDS011;19141;48.980;8.410;2023-08-08T06:38:21;3.97;;;1.77;;
32788;SDS011;19141;48.980;8.410;2023-08-08T06:40:46;2.85;;;1.70;;
32788;SDS011;19141;48.980;8.410;2023-08-08T06:43:12;4.10;;;1.70;;
32788;SDS011;19141;48.980;8.410;2023-08-08T06:45:38;3.00;;;1.80;;
32788;SDS011;19141;48.980;8.410;2023-08-08T06:48:04;3.60;;;1.90;;
32788;SDS011;19141;48.980;8.410;2023-08-08T06:50:30;2.17;;;1.38;;
32788;SDS011;19141;48.980;8.410;2023-08-08T06:52:55;2.70;;;1.83;;
32788;SDS011;19141;48.980;8.410;2023-08-08T06:55:20;3.95;;;1.80;;
32788;SDS011;19141;48.980;8.410;2023-08-08T06:57:46;2.75;;;1.50;;
32788;SDS011;19141;48.980;8.410;2023-08-08T07:00:12;4.70;;;1.63;;
32788;SDS011;19141;48.980;8.410;2023-08-08T07:02:38;2.53;;;1.60;;
32788;SDS011;19141;48.980;8.410;2023-08-08T07:05:04;5.45;;;2.13;;
32788;SDS011;19141;48.980;8.410;2023-08-08T07:07:29;5.60;;;2.97;;
32788;SDS011;19141;48.980;8.410;2023-08-08T07:09:57;3.05;;;1.70;;
32788;SDS011;19141;48.980;8.410;2023-08-08T07:12:23;2.42;;;1.60;;
32788;SDS011;19141;48.980;8.410;2023-08-08T07:14:48;2.33;;;1.40;;
32788;SDS011;19141;48.980;8.410;2023-08-08T07:17:14;3.30;;;1.67;;
32788;SDS011;19141;48.980;8.410;2023-08-08T07:19:39;4.38;;;1.60;;
32788;SDS011;19141;48.980;8.410;2023-08-08T07:22:06;2.38;;;1.60;;
32788;SDS011;19141;48.980;8.410;2023-08-08T07:24:31;3.53;;;1.65;;
32788;SDS011;19141;48.980;8.410;2023-08-08T07:26:58;2.83;;;1.60;;
32788;SDS011;19141;48.980;8.410;2023-08-08T07:29:24;3.17;;;1.60;;
32788;SDS011;19141;48.980;8.410;2023-08-08T07:31:51;3.45;;;1.90;;
32788;SDS011;19141;48.980;8.410;2023-08-08T07:34:18;3.15;;;1.77;;
32788;SDS011;19141;48.980;8.410;2023-08-08T07:36:43;6.72;;;1.80;;
32788;SDS011;19141;48.980;8.410;2023-08-08T07:39:09;2.28;;;1.30;;
32788;SDS011;19141;48.980;8.410;2023-08-08T07:41:34;3.42;;;1.90;;
32788;SDS011;19141;48.980;8.410;2023-08-08T07:44:00;3.92;;;1.75;;
32788;SDS011;19141;48.980;8.410;2023-08-08T07:46:25;4.05;;;1.58;;
32788;SDS011;19141;48.980;8.410;2023-08-08T07:48:50;3.38;;;1.80;;
32788;SDS011;19141;48.980;8.410;2023-08-08T07:51:16;2.85;;;1.55;;
32788;SDS011;19141;48.980;8.410;2023-08-08T07:53:41;3.65;;;1.70;;
32788;SDS011;19141;48.980;8.410;2023-08-08T07:56:07;4.30;;;1.50;;
32788;SDS011;19141;48.980;8.410;2023-08-08T07:58:32;3.75;;;1.70;;
32788;SDS011;19141;48.980;8.410;2023-08-08T08:00:58;4.15;;;1.58;;
32788;SDS011;19141;48.980;8.410;2023-08-08T08:03:24;2.05;;;1.20;;
32788;SDS011;19141;48.980;8.410;2023-08-08T08:05:50;2.38;;;1.42;;
32788;SDS011;19141;48.980;8.410;2023-08-08T08:08:16;3.10;;;1.58;;
32788;SDS011;19141;48.980;8.410;2023-08-08T08:10:41;2.92;;;1.50;;
32788;SDS011;19141;48.980;8.410;2023-08-08T08:13:07;1.73;;;1.20;;
32788;SDS011;19141;48.980;8.410;2023-08-08T08:15:33;1.60;;;1.38;;
32788;SDS011;19141;48.980;8.410;2023-08-08T08:17:58;4.53;;;1.40;;
32788;SDS011;19141;48.980;8.410;2023-08-08T08:20:23;2.20;;;1.20;;
32788;SDS011;19141;48.980;8.410;2023-08-08T08:22:50;2.17;;;1.40;;
32788;SDS011;19141;48.980;8.410;2023-08-08T08:25:15;3.40;;;1.35;;
32788;SDS011;19141;48.980;8.410;2023-08-08T08:27:41;4.53;;;2.42;;
32788;SDS011;19141;48.980;8.410;2023-08-08T08:30:07;3.03;;;1.55;;
32788;SDS011;19141;48.980;8.410;2023-08-08T08:32:36;3.53;;;1.40;;
32788;SDS011;19141;48.980;8.410;2023-08-08T08:35:05;3.83;;;1.50;;
32788;SDS011;19141;48.980;8.410;2023-08-08T08:37:32;2.55;;;1.95;;
32788;SDS011;19141;48.980;8.410;2023-08-08T08:39:58;4.18;;;1.33;;
32788;SDS011;19141;48.980;8.410;2023-08-08T08:42:24;2.55;;;1.10;;
32788;SDS011;19141;48.980;8.410;2023-08-08T08:44:52;2.45;;;1.45;;
32788;SDS011;19141;48.980;8.410;2023-08-08T08:47:22;7.88;;;1.73;;
32788;SDS011;19141;48.980;8.410;2023-08-08T08:49:49;1.88;;;1.30;;
32788;SDS011;19141;48.980;8.410;2023-08-08T08:54:42;1.80;;;1.17;;
32788;SDS011;19141;48.980;8.410;2023-08-08T08:57:08;3.08;;;1.40;;
32788;SDS011;19141;48.980;8.410;2023-08-08T08:59:34;2.53;;;1.33;;
32788;SDS011;19141;48.980;8.410;2023-08-08T09:02:00;3.90;;;1.17;;
32788;SDS011;19141;48.980;8.410;2023-08-08T09:04:27;3.17;;;1.45;;
32788;SDS011;19141;48.980;8.410;2023-08-08T09:06:54;2.38;;;1.30;;
32788;SDS011;19141;48.980;8.410;2023-08-08T09:09:20;4.60;;;1.40;;
32788;SDS011;19141;48.980;8.410;2023-08-08T09:11:48;2.83;;;1.75;;
32788;SDS011;19141;48.980;8.410;2023-08-08T09:14:16;3.92;;;1.58;;
32788;SDS011;19141;48.980;8.410;2023-08-08T09:16:47;2.75;;;1.60;;
32788;SDS011;19141;48.980;8.410;2023-08-08T09:19:13;1.67;;;1.20;;
32788;SDS011;19141;48.980;8.410;2023-08-08T09:21:39;2.13;;;1.30;;
32788;SDS011;19141;48.980;8.410;2023-08-08T09:24:04;2.05;;;1.30;;
32788;SDS011;19141;48.980;8.410;2023-08-08T09:26:30;4.60;;;1.35;;
32788;SDS011;19141;48.980;8.410;2023-08-08T09:28:56;2.80;;;1.45;;
32788;SDS011;19141;48.980;8.410;2023-08-08T09:31:21;3.60;;;1.42;;
32788;SDS011;19141;48.980;8.410;2023-08-08T09:33:50;2.70;;;1.30;;
32788;SDS011;19141;48.980;8.410;2023-08-08T09:36:16;2.50;;;1.27;;
32788;SDS011;19141;48.980;8.410;2023-08-08T09:38:44;2.05;;;1.40;;
32788;SDS011;19141;48.980;8.410;2023-08-08T09:41:10;5.28;;;1.50;;
32788;SDS011;19141;48.980;8.410;2023-08-08T09:43:36;3.10;;;1.52;;
32788;SDS011;19141;48.980;8.410;2023-08-08T09:46:02;3.22;;;1.40;;
32788;SDS011;19141;48.980;8.410;2023-08-08T09:48:31;2.25;;;1.20;;
32788;SDS011;19141;48.980;8.410;2023-08-08T09:51:01;1.90;;;1.30;;
32788;SDS011;19141;48.980;8.410;2023-08-08T09:53:27;3.38;;;1.30;;
32788;SDS011;19141;48.980;8.410;2023-08-08T09:55:54;2.73;;;1.37;;
32788;SDS011;19141;48.980;8.410;2023-08-08T09:58:20;4.70;;;1.30;;
32788;SDS011;19141;48.980;8.410;2023-08-08T10:00:49;2.70;;;1.30;;
32788;SDS011;19141;48.980;8.410;2023-08-08T10:03:18;3.92;;;1.30;;
32788;SDS011;19141;48.980;8.410;2023-08-08T10:05:44;2.05;;;0.95;;
32788;SDS011;19141;48.980;8.410;2023-08-08T10:08:11;2.38;;;1.50;;
32788;SDS011;19141;48.980;8.410;2023-08-08T10:10:37;3.40;;;1.27;;
32788;SDS011;19141;48.980;8.410;2023-08-08T10:13:03;2.97;;;1.33;;
32788;SDS011;19141;48.980;8.410;2023-08-08T10:15:29;1.85;;;1.10;;
32788;SDS011;19141;48.980;8.410;2023-08-08T10:17:57;2.08;;;1.40;;
32788;SDS011;19141;48.980;8.410;2023-08-08T10:20:24;1.92;;;1.10;;
32788;SDS011;19141;48.980;8.410;2023-08-08T10:22:52;5.57;;;1.80;;
32788;SDS011;19141;48.980;8.410;2023-08-08T10:28:11;1.55;;;1.15;;
32788;SDS011;19141;48.980;8.410;2023-08-08T10:30:49;2.53;;;0.90;;
32788;SDS011;19141;48.980;8.410;2023-08-08T10:33:18;1.48;;;1.00;;
32788;SDS011;19141;48.980;8.410;2023-08-08T10:36:02;1.70;;;1.00;;
32788;SDS011;19141;48.980;8.410;2023-08-08T10:38:45;1.48;;;0.95;;
32788;SDS011;19141;48.980;8.410;2023-08-08T10:41:12;1.83;;;0.93;;
32788;SDS011;19141;48.980;8.410;2023-08-08T10:43:50;1.17;;;1.00;;
32788;SDS011;19141;48.980;8.410;2023-08-08T10:48:57;2.65;;;1.23;;
32788;SDS011;19141;48.980;8.410;2023-08-08T10:51:41;2.90;;;1.10;;
32788;SDS011;19141;48.980;8.410;2023-08-08T10:54:12;1.90;;;0.90;;
32788;SDS011;19141;48.980;8.410;2023-08-08T10:56:39;1.88;;;1.00;;
32788;SDS011;19141;48.980;8.410;2023-08-08T10:59:14;1.52;;;0.90;;
32788;SDS011;19141;48.980;8.410;2023-08-08T11:01:42;1.95;;;1.05;;
32788;SDS011;19141;48.980;8.410;2023-08-08T11:04:10;1.70;;;0.90;;
32788;SDS011;19141;48.980;8.410;2023-08-08T11:06:36;1.88;;;1.02;;
32788;SDS011;19141;48.980;8.410;2023-08-08T11:09:04;1.15;;;0.80;;
32788;SDS011;19141;48.980;8.410;2023-08-08T11:11:38;1.63;;;0.95;;
32788;SDS011;19141;48.980;8.410;2023-08-08T11:14:10;2.53;;;0.80;;
32788;SDS011;19141;48.980;8.410;2023-08-08T11:16:36;1.65;;;0.90;;
32788;SDS011;19141;48.980;8.410;2023-08-08T11:19:01;1.38;;;0.88;;
32788;SDS011;19141;48.980;8.410;2023-08-08T11:21:27;1.00;;;0.70;;
32788;SDS011;19141;48.980;8.410;2023-08-08T11:23:53;1.92;;;0.82;;
32788;SDS011;19141;48.980;8.410;2023-08-08T11:26:18;1.10;;;0.68;;
32788;SDS011;19141;48.980;8.410;2023-08-08T11:28:53;1.90;;;0.70;;
32788;SDS011;19141;48.980;8.410;2023-08-08T11:31:21;3.30;;;1.02;;
32788;SDS011;19141;48.980;8.410;2023-08-08T11:33:48;1.75;;;0.80;;
32788;SDS011;19141;48.980;8.410;2023-08-08T11:36:14;2.57;;;0.90;;
32788;SDS011;19141;48.980;8.410;2023-08-08T11:38:40;1.08;;;0.73;;
32788;SDS011;19141;48.980;8.410;2023-08-08T11:41:08;2.28;;;1.05;;
32788;SDS011;19141;48.980;8.410;2023-08-08T11:43:36;1.63;;;0.98;;
32788;SDS011;19141;48.980;8.410;2023-08-08T11:46:03;0.90;;;0.70;;
32788;SDS011;19141;48.980;8.410;2023-08-08T11:48:28;2.15;;;1.02;;
32788;SDS011;19141;48.980;8.410;2023-08-08T11:50:54;1.98;;;0.98;;
32788;SDS011;19141;48.980;8.410;2023-08-08T11:53:19;2.00;;;0.85;;
32788;SDS011;19141;48.980;8.410;2023-08-08T11:55:45;0.85;;;0.70;;
32788;SDS011;19141;48.980;8.410;2023-08-08T11:58:14;2.03;;;1.00;;
32788;SDS011;19141;48.980;8.410;2023-08-08T12:00:39;0.70;;;0.70;;
32788;SDS011;19141;48.980;8.410;2023-08-08T12:03:07;1.25;;;1.10;;
32788;SDS011;19141;48.980;8.410;2023-08-08T12:05:37;1.80;;;0.98;;
32788;SDS011;19141;48.980;8.410;2023-08-08T12:08:05;2.65;;;1.00;;
32788;SDS011;19141;48.980;8.410;2023-08-08T12:10:31;1.90;;;0.90;;
32788;SDS011;19141;48.980;8.410;2023-08-08T12:12:57;0.80;;;0.77;;
32788;SDS011;19141;48.980;8.410;2023-08-08T12:15:34;1.67;;;0.70;;
32788;SDS011;19141;48.980;8.410;2023-08-08T12:18:04;1.70;;;1.00;;
32788;SDS011;19141;48.980;8.410;2023-08-08T12:20:29;2.13;;;0.80;;
32788;SDS011;19141;48.980;8.410;2023-08-08T12:22:56;0.90;;;0.60;;
32788;SDS011;19141;48.980;8.410;2023-08-08T12:25:22;2.75;;;0.90;;
32788;SDS011;19141;48.980;8.410;2023-08-08T12:27:48;1.33;;;0.70;;
32788;SDS011;19141;48.980;8.410;2023-08-08T12:30:14;2.13;;;1.13;;
32788;SDS011;19141;48.980;8.410;2023-08-08T12:32:40;3.53;;;0.80;;
32788;SDS011;19141;48.980;8.410;2023-08-08T12:35:05;1.02;;;0.75;;
32788;SDS011;19141;48.980;8.410;2023-08-08T12:37:31;0.65;;;0.65;;
32788;SDS011;19141;48.980;8.410;2023-08-08T12:39:57;1.35;;;1.00;;
32788;SDS011;19141;48.980;8.410;2023-08-08T12:42:23;1.10;;;0.68;;
32788;SDS011;19141;48.980;8.410;2023-08-08T12:44:48;1.58;;;0.70;;
32788;SDS011;19141;48.980;8.410;2023-08-08T12:47:16;0.95;;;0.75;;
32788;SDS011;19141;48.980;8.410;2023-08-08T12:49:43;2.83;;;0.88;;
32788;SDS011;19141;48.980;8.410;2023-08-08T12:52:08;1.40;;;0.82;;
32788;SDS011;19141;48.980;8.410;2023-08-08T12:54:34;1.85;;;0.80;;
32788;SDS011;19141;48.980;8.410;2023-08-08T12:57:01;1.88;;;0.90;;
32788;SDS011;19141;48.980;8.410;2023-08-08T12:59:26;1.25;;;0.75;;
32788;SDS011;19141;48.980;8.410;2023-08-08T13:01:52;1.65;;;0.90;;
32788;SDS011;19141;48.980;8.410;2023-08-08T13:04:17;1.65;;;0.80;;
32788;SDS011;19141;48.980;8.410;2023-08-08T13:06:42;1.80;;;0.90;;
32788;SDS011;19141;48.980;8.410;2023-08-08T13:09:08;1.65;;;1.10;;
32788;SDS011;19141;48.980;8.410;2023-08-08T13:11:33;1.95;;;0.80;;
32788;SDS011;19141;48.980;8.410;2023-08-08T13:13:59;3.08;;;0.90;;
32788;SDS011;19141;48.980;8.410;2023-08-08T13:16:24;0.85;;;0.80;;
32788;SDS011;19141;48.980;8.410;2023-08-08T13:18:49;1.92;;;0.73;;
32788;SDS011;19141;48.980;8.410;2023-08-08T13:21:15;4.35;;;1.02;;
32788;SDS011;19141;48.980;8.410;2023-08-08T13:23:41;1.00;;;0.75;;
32788;SDS011;19141;48.980;8.410;2023-08-08T13:26:07;1.13;;;0.70;;
32788;SDS011;19141;48.980;8.410;2023-08-08T13:28:32;1.33;;;0.85;;
32788;SDS011;19141;48.980;8.410;2023-08-08T13:30:58;2.92;;;0.80;;
32788;SDS011;19141;48.980;8.410;2023-08-08T13:33:23;2.30;;;1.15;;
32788;SDS011;19141;48.980;8.410;2023-08-08T13:35:49;1.05;;;0.70;;
32788;SDS011;19141;48.980;8.410;2023-08-08T13:38:14;1.50;;;0.80;;
32788;SDS011;19141;48.980;8.410;2023-08-08T13:40:43;1.17;;;0.80;;
32788;SDS011;19141;48.980;8.410;2023-08-08T13:43:08;0.85;;;0.50;;
32788;SDS011;19141;48.980;8.410;2023-08-08T13:45:34;1.35;;;0.70;;
32788;SDS011;19141;48.980;8.410;2023-08-08T13:47:59;0.90;;;0.80;;
32788;SDS011;19141;48.980;8.410;2023-08-08T13:50:25;0.98;;;0.70;;
32788;SDS011;19141;48.980;8.410;2023-08-08T13:52:50;2.75;;;0.80;;
32788;SDS011;19141;48.980;8.410;2023-08-08T13:55:17;1.40;;;0.80;;
32788;SDS011;19141;48.980;8.410;2023-08-08T13:57:43;1.90;;;0.90;;
32788;SDS011;19141;48.980;8.410;2023-08-08T14:00:09;1.20;;;0.73;;
32788;SDS011;19141;48.980;8.410;2023-08-08T14:02:37;1.08;;;0.70;;
32788;SDS011;19141;48.980;8.410;2023-08-08T14:05:03;1.95;;;0.80;;
32788;SDS011;19141;48.980;8.410;2023-08-08T14:07:31;1.20;;;0.80;;
32788;SDS011;19141;48.980;8.410;2023-08-08T14:09:58;2.05;;;0.93;;
32788;SDS011;19141;48.980;8.410;2023-08-08T14:12:24;1.20;;;0.77;;
32788;SDS011;19141;48.980;8.410;2023-08-08T14:14:49;2.80;;;0.88;;
32788;SDS011;19141;48.980;8.410;2023-08-08T14:17:15;1.77;;;0.70;;
32788;SDS011;19141;48.980;8.410;2023-08-08T14:19:40;1.48;;;0.80;;
32788;SDS011;19141;48.980;8.410;2023-08-08T14:22:06;1.13;;;1.02;;
32788;SDS011;19141;48.980;8.410;2023-08-08T14:24:31;1.27;;;0.82;;
32788;SDS011;19141;48.980;8.410;2023-08-08T14:26:56;1.48;;;0.90;;
32788;SDS011;19141;48.980;8.410;2023-08-08T14:29:22;1.45;;;0.90;;
32788;SDS011;19141;48.980;8.410;2023-08-08T14:31:47;1.05;;;0.75;;
32788;SDS011;19141;48.980;8.410;2023-08-08T14:34:14;1.23;;;0.73;;
32788;SDS011;19141;48.980;8.410;2023-08-08T14:36:39;1.13;;;0.70;;
32788;SDS011;19141;48.980;8.410;2023-08-08T14:39:05;2.47;;;1.13;;
32788;SDS011;19141;48.980;8.410;2023-08-08T14:41:30;1.48;;;0.63;;
32788;SDS011;19141;48.980;8.410;2023-08-08T14:43:56;1.42;;;0.77;;
32788;SDS011;19141;48.980;8.410;2023-08-08T14:46:21;2.33;;;1.40;;
32788;SDS011;19141;48.980;8.410;2023-08-08T14:48:46;0.90;;;0.60;;
32788;SDS011;19141;48.980;8.410;2023-08-08T14:51:12;2.05;;;0.90;;
32788;SDS011;19141;48.980;8.410;2023-08-08T14:53:41;2.38;;;1.20;;
32788;SDS011;19141;48.980;8.410;2023-08-08T14:56:07;2.20;;;0.90;;
32788;SDS011;19141;48.980;8.410;2023-08-08T14:58:33;1.95;;;0.95;;
32788;SDS011;19141;48.980;8.410;2023-08-08T15:01:00;1.15;;;0.80;;
32788;SDS011;19141;48.980;8.410;2023-08-08T15:03:26;0.80;;;0.80;;
32788;SDS011;19141;48.980;8.410;2023-08-08T15:05:51;1.60;;;0.63;;
32788;SDS011;19141;48.980;8.410;2023-08-08T15:08:17;2.30;;;1.10;;
32788;SDS011;19141;48.980;8.410;2023-08-08T15:10:43;2.05;;;1.00;;
32788;SDS011;19141;48.980;8.410;2023-08-08T15:13:09;1.25;;;0.93;;
32788;SDS011;19141;48.980;8.410;2023-08-08T15:15:35;1.60;;;0.90;;
32788;SDS011;19141;48.980;8.410;2023-08-08T15:18:00;1.85;;;1.25;;
32788;SDS011;19141;48.980;8.410;2023-08-08T15:20:25;6.57;;;1.13;;
32788;SDS011;19141;48.980;8.410;2023-08-08T15:22:51;1.80;;;0.77;;
32788;SDS011;19141;48.980;8.410;2023-08-08T15:25:16;2.30;;;1.10;;
32788;SDS011;19141;48.980;8.410;2023-08-08T15:27:42;1.00;;;0.75;;
32788;SDS011;19141;48.980;8.410;2023-08-08T15:30:08;0.82;;;0.70;;
32788;SDS011;19141;48.980;8.410;2023-08-08T15:32:34;1.83;;;0.90;;
32788;SDS011;19141;48.980;8.410;2023-08-08T15:34:59;2.35;;;1.10;;
32788;SDS011;19141;48.980;8.410;2023-08-08T15:37:25;1.02;;;0.80;;
32788;SDS011;19141;48.980;8.410;2023-08-08T15:39:50;1.75;;;1.13;;
32788;SDS011;19141;48.980;8.410;2023-08-08T15:42:15;1.35;;;1.00;;
32788;SDS011;19141;48.980;8.410;2023-08-08T15:44:41;0.75;;;0.70;;
32788;SDS011;19141;48.980;8.410;2023-08-08T15:47:06;1.30;;;0.80;;
32788;SDS011;19141;48.980;8.410;2023-08-08T15:49:33;1.40;;;0.77;;
32788;SDS011;19141;48.980;8.410;2023-08-08T15:51:59;2.50;;;0.90;;
32788;SDS011;19141;48.980;8.410;2023-08-08T15:54:25;2.78;;;1.13;;
32788;SDS011;19141;48.980;8.410;2023-08-08T15:56:50;1.77;;;0.90;;
32788;SDS011;19141;48.980;8.410;2023-08-08T15:59:16;1.98;;;0.95;;
32788;SDS011;19141;48.980;8.410;2023-08-08T16:01:42;1.27;;;0.70;;
32788;SDS011;19141;48.980;8.410;2023-08-08T16:04:08;1.45;;;0.90;;
32788;SDS011;19141;48.980;8.410;2023-08-08T16:06:35;1.23;;;0.77;;
32788;SDS011;19141;48.980;8.410;2023-08-08T16:09:01;1.58;;;0.88;;
32788;SDS011;19141;48.980;8.410;2023-08-08T16:11:27;0.93;;;0.70;;
32788;SDS011;19141;48.980;8.410;2023-08-08T16:13:53;1.52;;;0.80;;
32788;SDS011;19141;48.980;8.410;2023-08-08T16:16:18;0.95;;;0.80;;
32788;SDS011;19141;48.980;8.410;2023-08-08T16:18:44;1.33;;;0.70;;
32788;SDS011;19141;48.980;8.410;2023-08-08T16:21:10;3.55;;;0.90;;
32788;SDS011;19141;48.980;8.410;2023-08-08T16:23:35;1.10;;;0.90;;
32788;SDS011;19141;48.980;8.410;2023-08-08T16:26:01;3.25;;;0.93;;
32788;SDS011;19141;48.980;8.410;2023-08-08T16:28:26;4.65;;;3.55;;
32788;SDS011;19141;48.980;8.410;2023-08-08T16:30:53;1.90;;;1.10;;
32788;SDS011;19141;48.980;8.410;2023-08-08T16:33:19;1.42;;;0.82;;
32788;SDS011;19141;48.980;8.410;2023-08-08T16:35:45;5.95;;;5.40;;
32788;SDS011;19141;48.980;8.410;2023-08-08T16:38:10;1.85;;;1.45;;
32788;SDS011;19141;48.980;8.410;2023-08-08T16:40:37;2.10;;;1.00;;
32788;SDS011;19141;48.980;8.410;2023-08-08T16:43:03;2.30;;;1.30;;
32788;SDS011;19141;48.980;8.410;2023-08-08T16:45:28;1.85;;;1.10;;
32788;SDS011;19141;48.980;8.410;2023-08-08T16:47:54;3.83;;;2.85;;
32788;SDS011;19141;48.980;8.410;2023-08-08T16:50:19;4.82;;;4.22;;
32788;SDS011;19141;48.980;8.410;2023-08-08T16:52:45;1.92;;;1.15;;
32788;SDS011;19141;48.980;8.410;2023-08-08T16:55:10;3.33;;;1.30;;
32788;SDS011;19141;48.980;8.410;2023-08-08T16:57:36;2.08;;;1.27;;
32788;SDS011;19141;48.980;8.410;2023-08-08T17:00:03;1.65;;;1.08;;
32788;SDS011;19141;48.980;8.410;2023-08-08T17:02:35;2.78;;;0.95;;
32788;SDS011;19141;48.980;8.410;2023-08-08T17:05:01;16.10;;;10.82;;
32788;SDS011;19141;48.980;8.410;2023-08-08T17:07:27;8.57;;;5.70;;
32788;SDS011;19141;48.980;8.410;2023-08-08T17:09:54;67.00;;;48.05;;
32788;SDS011;19141;48.980;8.410;2023-08-08T17:12:20;113.90;;;81.20;;
32788;SDS011;19141;48.980;8.410;2023-08-08T17:14:45;115.65;;;82.07;;
32788;SDS011;19141;48.980;8.410;2023-08-08T17:17:11;20.73;;;13.45;;
32788;SDS011;19141;48.980;8.410;2023-08-08T17:19:37;2.45;;;1.40;;
32788;SDS011;19141;48.980;8.410;2023-08-08T17:22:03;3.13;;;2.20;;
32788;SDS011;19141;48.980;8.410;2023-08-08T17:24:28;1.38;;;0.82;;
32788;SDS011;19141;48.980;8.410;2023-08-08T17:26:53;1.30;;;1.00;;
32788;SDS011;19141;48.980;8.410;2023-08-08T17:29:19;2.90;;;1.60;;
32788;SDS011;19141;48.980;8.410;2023-08-08T17:31:44;3.03;;;1.13;;
32788;SDS011;19141;48.980;8.410;2023-08-08T17:34:10;1.08;;;0.90;;
32788;SDS011;19141;48.980;8.410;2023-08-08T17:36:35;1.65;;;0.90;;
32788;SDS011;19141;48.980;8.410;2023-08-08T17:39:01;1.75;;;1.20;;
32788;SDS011;19141;48.980;8.410;2023-08-08T17:41:26;1.33;;;0.93;;
32788;SDS011;19141;48.980;8.410;2023-08-08T17:43:52;2.17;;;0.75;;
32788;SDS011;19141;48.980;8.410;2023-08-08T17:46:19;3.17;;;0.90;;
32788;SDS011;19141;48.980;8.410;2023-08-08T17:48:44;2.15;;;1.00;;
32788;SDS011;19141;48.980;8.410;2023-08-08T17:51:10;1.52;;;0.77;;
32788;SDS011;19141;48.980;8.410;2023-08-08T17:53:36;1.88;;;1.00;;
32788;SDS011;19141;48.980;8.410;2023-08-08T17:56:01;3.15;;;1.20;;
32788;SDS011;19141;48.980;8.410;2023-08-08T17:58:27;2.63;;;0.82;;
32788;SDS011;19141;48.980;8.410;2023-08-08T18:00:52;1.80;;;0.90;;
32788;SDS011;19141;48.980;8.410;2023-08-08T18:03:18;1.98;;;1.20;;
32788;SDS011;19141;48.980;8.410;2023-08-08T18:05:43;1.33;;;0.90;;
32788;SDS011;19141;48.980;8.410;2023-08-08T18:08:09;3.33;;;1.40;;
32788;SDS011;19141;48.980;8.410;2023-08-08T18:10:36;2.67;;;1.50;;
32788;SDS011;19141;48.980;8.410;2023-08-08T18:13:05;2.38;;;1.00;;
32788;SDS011;19141;48.980;8.410;2023-08-08T18:15:30;2.83;;;1.25;;
32788;SDS011;19141;48.980;8.410;2023-08-08T18:17:56;2.38;;;1.08;;
32788;SDS011;19141;48.980;8.410;2023-08-08T18:20:22;2.17;;;1.00;;
32788;SDS011;19141;48.980;8.410;2023-08-08T18:22:48;2.20;;;1.17;;
32788;SDS011;19141;48.980;8.410;2023-08-08T18:25:14;2.15;;;1.10;;
32788;SDS011;19141;48.980;8.410;2023-08-08T18:27:40;2.67;;;1.13;;
32788;SDS011;19141;48.980;8.410;2023-08-08T18:30:05;2.97;;;1.42;;
32788;SDS011;19141;48.980;8.410;2023-08-08T18:32:31;2.25;;;0.90;;
32788;SDS011;19141;48.980;8.410;2023-08-08T18:34:57;1.08;;;0.90;;
32788;SDS011;19141;48.980;8.410;2023-08-08T18:37:23;5.10;;;1.75;;
32788;SDS011;19141;48.980;8.410;2023-08-08T18:39:49;1.83;;;1.17;;
32788;SDS011;19141;48.980;8.410;2023-08-08T18:42:15;2.28;;;1.33;;
32788;SDS011;19141;48.980;8.410;2023-08-08T18:44:40;3.08;;;1.30;;
32788;SDS011;19141;48.980;8.410;2023-08-08T18:47:06;2.40;;;0.93;;
32788;SDS011;19141;48.980;8.410;2023-08-08T18:49:31;2.97;;;1.30;;
32788;SDS011;19141;48.980;8.410;2023-08-08T18:51:57;2.03;;;1.20;;
32788;SDS011;19141;48.980;8.410;2023-08-08T18:54:22;1.73;;;1.30;;
32788;SDS011;19141;48.980;8.410;2023-08-08T18:56:48;3.03;;;1.00;;
32788;SDS011;19141;48.980;8.410;2023-08-08T18:59:13;1.98;;;1.15;;
32788;SDS011;19141;48.980;8.410;2023-08-08T19:01:39;2.38;;;1.35;;
32788;SDS011;19141;48.980;8.410;2023-08-08T19:04:04;2.17;;;1.20;;
32788;SDS011;19141;48.980;8.410;2023-08-08T19:06:30;2.08;;;1.20;;
32788;SDS011;19141;48.980;8.410;2023-08-08T19:08:55;2.15;;;1.40;;
32788;SDS011;19141;48.980;8.410;2023-08-08T19:11:21;1.20;;;0.82;;